createdAt,value
2023-04-26T07:26:41.107Z,11.6
2023-04-26T07:32:37.114Z,11.9
2023-04-26T07:38:29.412Z,11.9
2023-04-26T07:44:20.647Z,11.6
2023-04-26T07:50:14.900Z,11.2
2023-04-26T07:56:07.857Z,11.1
2023-04-26T08:01:59.717Z,11.3
2023-04-26T08:08:07.844Z,11.5
2023-04-26T08:14:02.196Z,11.9
2023-04-26T08:19:54.368Z,12.5
2023-04-26T08:25:47.946Z,12.7
2023-04-26T08:31:39.408Z,12.9
2023-04-26T08:37:31.943Z,13.5
2023-04-26T08:43:27.732Z,14.2
2023-04-26T08:49:03.642Z,14.4
2023-04-26T08:54:55.540Z,13.9
2023-04-26T09:00:47.928Z,13.4
2023-04-26T09:06:42.047Z,13.5
2023-04-26T09:12:36.522Z,13.9
2023-04-26T09:18:15.050Z,13.6
2023-04-26T09:24:06.279Z,13.6
2023-04-26T09:29:58.429Z,14.1
2023-04-26T09:35:52.076Z,14.4
2023-04-26T09:41:40.017Z,13.8
2023-04-26T09:47:33.576Z,13.9
2023-04-26T09:53:27.346Z,14
2023-04-26T09:59:31.838Z,14.9
2023-04-26T10:05:25.689Z,14.8
2023-04-26T10:11:18.452Z,15.1
2023-04-26T10:16:53.690Z,15.6
2023-04-26T10:22:29.813Z,14.8
2023-04-26T10:28:22.692Z,15.1
2023-04-26T10:34:21.587Z,15.2
2023-04-26T10:40:12.930Z,15.5
2023-04-26T10:45:51.335Z,16
2023-04-26T10:51:43.773Z,16
2023-04-26T10:57:34.745Z,17.1
2023-04-26T11:03:59.882Z,16.2
2023-04-26T11:09:38.903Z,16.2
2023-04-26T11:14:59.002Z,16.3
2023-04-26T11:20:24.105Z,16.9
2023-04-26T11:25:59.352Z,16.7
2023-04-26T11:31:50.555Z,15.9
2023-04-26T11:37:44.559Z,16.6
2023-04-26T11:43:34.899Z,17.3
2023-04-26T11:49:26.647Z,16.3
2023-04-26T11:55:18.539Z,15.6
2023-04-26T12:01:09.816Z,16.1
2023-04-26T12:07:04.994Z,16.1
2023-04-26T12:12:58.019Z,16.2
2023-04-26T12:19:00.597Z,15.9
2023-04-26T12:24:55.142Z,15.6
2023-04-26T12:30:32.803Z,15.4
2023-04-26T12:36:39.755Z,15.5
2023-04-26T12:42:31.644Z,15.1
2023-04-26T12:48:24.516Z,15.1
2023-04-26T12:54:01.405Z,14.9
2023-04-26T12:59:38.202Z,15.2
2023-04-26T13:05:19.085Z,15.8
2023-04-26T13:10:39.429Z,15.9
2023-04-26T13:16:25.002Z,15.2
2023-04-26T13:22:01.896Z,15.1
2023-04-26T13:27:55.695Z,14.3
2023-04-26T13:33:51.601Z,14.4
2023-04-26T13:39:45.405Z,13.9
2023-04-26T13:45:36.912Z,13.6
2023-04-26T13:51:29.133Z,13.4
2023-04-26T13:57:20.988Z,13.2
2023-04-26T14:03:13.543Z,12.5
2023-04-26T14:09:06.704Z,12.5
2023-04-26T14:15:14.395Z,12.4
2023-04-26T14:21:06.622Z,12.2
2023-04-26T14:26:58.651Z,11.9
2023-04-26T14:32:51.070Z,12
2023-04-26T14:38:43.729Z,11.9
2023-04-26T14:44:34.928Z,11.8
2023-04-26T14:50:45.898Z,11.4
2023-04-26T14:56:39.850Z,11.4
2023-04-26T15:02:35.075Z,11.4
2023-04-26T15:08:27.468Z,11.3
2023-04-26T15:14:03.998Z,11.3
2023-04-26T15:19:56.169Z,11.3
2023-04-26T15:25:32.765Z,11.3
2023-04-26T15:31:09.479Z,11.1
2023-04-26T15:37:01.718Z,10.9
2023-04-26T15:42:55.768Z,10.9
2023-04-26T15:48:47.334Z,10.9
2023-04-26T15:54:24.799Z,10.8
2023-04-26T16:00:17.909Z,10.7
2023-04-26T16:06:12.550Z,10.5
2023-04-26T16:12:32.804Z,10.4
2023-04-26T16:18:26.098Z,10.4
2023-04-26T16:24:17.521Z,10.3
2023-04-26T16:30:11.500Z,10.2
2023-04-26T16:36:04.638Z,10.1
2023-04-26T16:41:55.835Z,10.1
2023-04-26T16:47:50.575Z,10
2023-04-26T16:53:43.233Z,9.9
2023-04-26T16:59:19.438Z,9.9
2023-04-26T17:04:45.574Z,9.9
2023-04-26T17:10:22.360Z,9.9
2023-04-26T17:16:14.203Z,9.9
2023-04-26T17:22:05.921Z,9.8
2023-04-26T17:27:58.137Z,9.8
2023-04-26T17:33:50.258Z,9.8
2023-04-26T17:39:41.481Z,9.8
2023-04-26T17:45:33.393Z,9.8
2023-04-26T17:51:24.583Z,9.7
2023-04-26T17:57:19.479Z,9.7
2023-04-26T18:02:58.025Z,9.6
2023-04-26T18:08:52.043Z,9.6
2023-04-26T18:14:45.592Z,9.5
2023-04-26T18:20:38.846Z,9.5
2023-04-26T18:26:30.319Z,9.5
2023-04-26T18:32:23.646Z,9.5
2023-04-26T18:38:15.948Z,9.4
2023-04-26T18:44:07.587Z,9.5
2023-04-26T18:50:00.124Z,9.6
2023-04-26T18:55:53.700Z,9.5
2023-04-26T19:01:48.830Z,9.5
2023-04-26T19:07:28.918Z,9.4
2023-04-26T19:13:36.211Z,9.4
2023-04-26T19:19:29.976Z,9.4
2023-04-26T19:25:23.014Z,9.3
2023-04-26T19:31:16.425Z,9.3
2023-04-26T19:37:08.855Z,9.3
2023-04-26T19:42:49.516Z,9.3
2023-04-26T19:48:44.006Z,9.3
2023-04-26T19:54:21.669Z,9.3
2023-04-26T20:00:00.527Z,9.3
2023-04-26T20:05:56.035Z,9.2
2023-04-26T20:11:49.057Z,9.1
2023-04-26T20:17:41.918Z,9.1
2023-04-26T20:23:36.300Z,9.1
2023-04-26T20:29:13.681Z,9.1
2023-04-26T20:35:08.175Z,9
2023-04-26T20:41:01.433Z,8.9
2023-04-26T20:46:54.050Z,8.9
2023-04-26T20:52:46.147Z,8.9
2023-04-26T20:58:38.225Z,8.8
2023-04-26T21:04:32.782Z,8.8
2023-04-26T21:10:24.511Z,8.8
2023-04-26T21:16:16.457Z,8.8
2023-04-26T21:22:07.879Z,8.7
2023-04-26T21:27:58.799Z,8.6
2023-04-26T21:33:51.147Z,8.6
2023-04-26T21:39:27.268Z,8.6
2023-04-26T21:45:23.398Z,8.6
2023-04-26T21:51:15.616Z,8.4
2023-04-26T21:57:07.201Z,8.4
2023-04-26T22:02:59.322Z,8.3
2023-04-26T22:08:52.217Z,8.3
2023-04-26T22:14:43.442Z,8.3
2023-04-26T22:20:34.555Z,8.2
2023-04-26T22:26:26.628Z,8.1
2023-04-26T22:32:29.966Z,8.1
2023-04-26T22:38:29.320Z,8
2023-04-26T22:44:21.065Z,7.9
2023-04-26T22:50:12.140Z,7.9
2023-04-26T22:56:12.192Z,7.8
2023-04-26T23:01:48.824Z,7.8
2023-04-26T23:07:40.920Z,7.7
2023-04-26T23:13:31.808Z,7.6
2023-04-26T23:19:10.778Z,7.5
2023-04-26T23:25:01.112Z,7.4
2023-04-26T23:30:53.958Z,7.3
2023-04-26T23:36:46.174Z,7.3
2023-04-26T23:42:42.427Z,7.2
2023-04-26T23:48:17.976Z,7
2023-04-26T23:54:10.152Z,6.8
